Terminal Aerodrome Forecast
Issued by NWS

Home | Current Version | Previous Version | Text Only | Print | Product List | Glossary On
Versions: 1 2 3 4 5 6 7 8 9 10 11 12 13 14 15 16
000
FTUS45 KABQ 222344 RRA
TAFSAF
TAF
KSAF 222344Z 2300/2324 19017G27KT P6SM SCT050
     FM230200 14011KT P6SM SCT120
     FM230900 11006KT P6SM FEW120
     FM231800 24012G21KT P6SM SCT090=

USA.gov is the U.S. government's official web portal to all federal, state and local government web resources and services.